Valday, Russia
Current Conditions -  °F | °C
As of 3:30 PM on Friday 24 Oct 2014 (Local Time) from ULLI Reporting Station
Clear Clear  
Wind Chill: 27°   Ceiling: Unl
Heat Index: 34°   Visibility: 6mi
Dew Point: 23°   Wind: 9mph
Humidity: 65%   Direction: 180°S
Pressure: 30.65"   Gusts: NA
Location:  57.97°N, 33.25°E
Report Text: ULLI 241230Z 18004MPS CAVOK 01/M05 Q1038 60190045 10190060NOSIG
Loading
Personal Weather Stations






























Interactive Weather Map
Tropical Storm Tracking
New forecast layout! Learn more

10-Day Weather Forecast

Advertisements
Track Severe Weather on mobile